Air Resources Laboratory banner image
Air Resources Laboratory web site National Oceanic and Atmospheric Administration (NOAA)

ar metar


KARG 171056Z AUTO 00000KT 10SM -RA FEW009 BKN031 BKN048 20/20 A3001 RMK AO2
 SLP163 P0000 T02000200=
KASG 171048Z 00000KT 10SM SCT037 BKN046 OVC110 20/20 A3001=
KBPK 171053Z AUTO 14004KT 10SM OVC007 19/19 A3000 RMK AO2 RAE48 CIG 004V010
 SLP150 P0003 T01940189=
KBVX 171056Z AUTO 14003KT 4SM BR FEW005 BKN010 OVC022 20/20 A3003 RMK AO2
 SLP166 P0003 T02000200=
KCDH 171055Z AUTO 03009G14KT 10SM OVC011 24/24 A2995 RMK AO2=
KDEQ 171053Z AUTO 08009KT 10SM FEW100 25/22 A2992 RMK AO2 SLP125 T02500217 $=
KELD 171053Z AUTO 36008KT 9SM FEW006 BKN080 23/23 A2996 RMK AO2 SLP140
 T02330228=
KFLP 171056Z AUTO 09004KT 10SM OVC004 19/19 A3002 RMK AO2 RAE56 SLP158 P0005
 T01940194=
KFSM 171053Z 05012KT 10SM -RA SCT009 BKN025 OVC080 22/21 A2999 RMK AO2 LTG DSNT
 NE AND NW SLP148 P0011 T02170206=
KFYV 171053Z 16003KT 9SM -RA SCT090 OVC110 21/20 A2999 RMK AO2 LTG DSNT SE AND
 W TSE19 SLP138 P0010 T02110200=
KHKA 171053Z AUTO 05003KT 4SM -RA BR SCT055 BKN070 BKN110 21/19 A2999 RMK AO2
 SLP153 P0006 T02060194 $=
KHOT 171053Z AUTO 08007KT 10SM CLR 23/18 A2997 RMK AO2 LTG DSNT N AND NW SLP142
 T02280183=
KHRO 171053Z AUTO 10005KT 6SM RA BR OVC003 19/19 A3002 RMK AO2 RAB03 SLP150
 P0008 T01940189=
KJBR 171053Z AUTO 04005KT 10SM -RA BKN050 20/19 A3002 RMK AO2 SLP163 P0001
 T02000194 $=
KLIT 171053Z 08007KT 5SM RA BR FEW008 BKN070 OVC120 21/19 A2999 RMK AO2 LTG
 DSNT W-N SLP155 TSE16B17E30 TS DSIPTD P0006 T02110189 $=
KLLQ 171053Z AUTO 03005KT 10SM BKN008 OVC012 23/22 A2997 RMK AO2 CIG 006V010
 SLP145 T02280217=
KLRF 171055Z AUTO 10007KT 7SM -RA FEW003 OVC090 20/16 A2997 RMK AO2 LTG DSNT
 NW-N TSE22 SLP149 P0019 T02030159 $=
KMWT 171053Z AUTO 11003KT 10SM SCT090 BKN120 23/18 A2995 RMK AO2 SLP127
 T02330183 $=
KPBF 171053Z AUTO 04011KT 10SM FEW012 OVC023 23/19 A2999 RMK AO2 SLP152
 T02280194=
KROG 171058Z 00000KT 10SM OVC004 20/20 A3002 RMK AO2 RAE24 SLP150 P0000
 T02000200 $=
KRUE 171053Z AUTO VRB04KT 5SM +RA BR SCT010 OVC055 21/19 A2998 RMK AO2 LTG DSNT
 ALQDS RAB0957 SLP145 P0017 T02060194=
KSGT 171056Z AUTO 09006KT 10SM VCTS FEW007 BKN055 OVC065 22/21 A3000 RMK AO2
 WSHFT 0948 LTG DSNT E TSB26RAB21E40 SLP156 P0023 T02170206=
KSLG 171056Z AUTO 00000KT 10SM -RA BKN047 BKN100 21/20 A2999 RMK AO2 LTG DSNT
 SW SLP142 P0003 T02060200=
KSRC 171056Z AUTO 00000KT 7SM RA BKN007 BKN023 OVC100 20/20 A3002 RMK AO2 LTG
 DSNT S AND W CIG 004V010 SLP164 P0003 T02000200=
KTXK 171053Z 06007KT 10SM CLR 24/23 A2994 RMK AO2 SLP133 T02440228=
KVBT 171056Z AUTO 17003KT 10SM SCT095 BKN120 21/19 A3002 RMK AO2 RAE18 SLP154
 P0000 T02060194=
KXNA 171053Z 14004KT 10SM BKN032 BKN049 21/19 A3000 RMK AO2 RAE19 SLP142 P0002
 T02060194=